Time,TemperatureF,DewpointF,PressureIn,WindDirection,WindDirectionDegrees,WindSpeedMPH,WindSpeedGustMPH,Humidity,HourlyPrecipIn,Conditions,Clouds,dailyrainin,SoftwareType,DateUTC
2013-01-24 00:03:00,27.0,20.0,30.19,WNW,299,3.0,11.0,73,0.00,,,0.00,,2013-01-24 05:03:00,
2013-01-24 00:12:00,27.0,20.0,30.19,WNW,299,3.0,11.0,73,0.00,,,0.00,,2013-01-24 05:12:00,
2013-01-24 00:22:00,26.0,18.0,30.21,WNW,302,4.0,12.0,71,0.00,,,0.00,,2013-01-24 05:22:00,
2013-01-24 00:32:00,26.0,18.0,30.22,NW,304,3.0,9.0,71,0.00,,,0.00,,2013-01-24 05:32:00,
2013-01-24 00:42:00,26.0,18.0,30.22,NW,304,3.0,9.0,71,0.00,,,0.00,,2013-01-24 05:42:00,
2013-01-24 00:53:00,25.0,16.0,30.22,NW,312,5.0,12.0,67,0.00,,,0.00,,2013-01-24 05:53:00,
2013-01-24 01:02:00,25.0,16.0,30.23,NW,305,3.0,7.0,67,0.00,,,0.00,,2013-01-24 06:02:00,
2013-01-24 01:12:00,25.0,16.0,30.23,NW,305,3.0,7.0,67,0.00,,,0.00,,2013-01-24 06:12:00,
2013-01-24 01:22:00,24.0,15.0,30.24,NW,308,5.0,12.0,67,0.00,,,0.00,,2013-01-24 06:22:00,
2013-01-24 01:32:00,24.0,15.0,30.26,WNW,300,4.0,11.0,68,0.00,,,0.00,,2013-01-24 06:32:00,
2013-01-24 01:42:00,24.0,15.0,30.26,WNW,300,4.0,11.0,68,0.00,,,0.00,,2013-01-24 06:42:00,
2013-01-24 01:52:00,23.0,14.0,30.27,NW,316,3.0,8.0,67,0.00,,,0.00,,2013-01-24 06:52:00,
2013-01-24 02:02:00,23.0,14.0,30.28,NW,316,5.0,11.0,69,0.00,,,0.00,,2013-01-24 07:02:00,
2013-01-24 02:12:00,23.0,14.0,30.28,NW,316,5.0,11.0,69,0.00,,,0.00,,2013-01-24 07:12:00,
2013-01-24 02:22:00,22.0,13.0,30.29,NW,321,3.0,11.0,69,0.00,,,0.00,,2013-01-24 07:22:00,
2013-01-24 02:33:00,22.0,14.0,30.30,NW,315,3.0,8.0,70,0.00,,,0.00,,2013-01-24 07:33:00,
2013-01-24 02:42:00,22.0,14.0,30.30,NW,315,3.0,8.0,70,0.00,,,0.00,,2013-01-24 07:42:00,
2013-01-24 02:53:00,22.0,14.0,30.31,NNW,330,2.0,7.0,71,0.00,,,0.00,,2013-01-24 07:53:00,
2013-01-24 03:02:00,21.0,13.0,30.33,NW,315,2.0,6.0,72,0.00,,,0.00,,2013-01-24 08:02:00,
2013-01-24 03:12:00,21.0,13.0,30.33,NW,315,2.0,6.0,72,0.00,,,0.00,,2013-01-24 08:12:00,
2013-01-24 03:22:00,21.0,14.0,30.34,NW,307,1.0,7.0,73,0.00,,,0.00,,2013-01-24 08:22:00,
2013-01-24 03:33:00,21.0,14.0,30.34,NNW,329,2.0,6.0,74,0.00,,,0.00,,2013-01-24 08:33:00,
2013-01-24 03:42:00,21.0,14.0,30.34,NNW,329,2.0,6.0,74,0.00,,,0.00,,2013-01-24 08:42:00,
2013-01-24 03:53:00,20.0,13.0,30.35,NW,323,1.0,5.0,74,0.00,,,0.00,,2013-01-24 08:53:00,
2013-01-24 04:02:00,20.0,14.0,30.36,NNW,337,1.0,4.0,76,0.00,,,0.00,,2013-01-24 09:02:00,
2013-01-24 04:12:00,20.0,14.0,30.36,NNW,337,1.0,4.0,76,0.00,,,0.00,,2013-01-24 09:12:00,
2013-01-24 04:22:00,20.0,14.0,30.38,NW,324,2.0,7.0,76,0.00,,,0.00,,2013-01-24 09:22:00,
2013-01-24 04:33:00,19.0,14.0,30.39,NW,324,3.0,7.0,79,0.00,,,0.00,,2013-01-24 09:33:00,
2013-01-24 04:42:00,19.0,14.0,30.39,NW,324,3.0,7.0,79,0.00,,,0.00,,2013-01-24 09:42:00,
2013-01-24 04:53:00,19.0,15.0,30.39,NW,326,1.0,5.0,83,0.00,,,0.00,,2013-01-24 09:53:00,
2013-01-24 05:02:00,19.0,14.0,30.40,NNW,336,1.0,5.0,81,0.00,,,0.00,,2013-01-24 10:02:00,
2013-01-24 05:12:00,19.0,14.0,30.40,NNW,336,1.0,5.0,81,0.00,,,0.00,,2013-01-24 10:12:00,
2013-01-24 05:22:00,18.0,12.0,30.40,North,351,2.0,6.0,78,0.00,,,0.00,,2013-01-24 10:22:00,
2013-01-24 05:33:00,18.0,12.0,30.41,NNW,339,1.0,4.0,77,0.00,,,0.00,,2013-01-24 10:33:00,
2013-01-24 05:43:00,18.0,12.0,30.41,NNW,339,1.0,4.0,77,0.00,,,0.00,,2013-01-24 10:43:00,
2013-01-24 05:53:00,17.0,11.0,30.42,North,350,1.0,4.0,78,0.00,,,0.00,,2013-01-24 10:53:00,
2013-01-24 06:02:00,17.0,11.0,30.43,NNW,341,1.0,4.0,77,0.00,,,0.00,,2013-01-24 11:02:00,
2013-01-24 06:12:00,17.0,11.0,30.43,NNW,341,1.0,4.0,77,0.00,,,0.00,,2013-01-24 11:12:00,
2013-01-24 06:22:00,16.0,10.0,30.44,NNW,336,2.0,7.0,76,0.00,,,0.00,,2013-01-24 11:22:00,
2013-01-24 06:33:00,16.0,10.0,30.46,NNW,347,1.0,5.0,76,0.00,,,0.00,,2013-01-24 11:33:00,
2013-01-24 06:43:00,16.0,10.0,30.46,NNW,347,1.0,5.0,76,0.00,,,0.00,,2013-01-24 11:43:00,
2013-01-24 06:53:00,15.0,9.0,30.47,NNW,342,0.0,3.0,77,0.00,,,0.00,,2013-01-24 11:53:00,
2013-01-24 07:03:00,15.0,9.0,30.48,NNW,342,1.0,3.0,77,0.00,,,0.00,,2013-01-24 12:03:00,
2013-01-24 07:12:00,15.0,9.0,30.48,NNW,342,1.0,3.0,77,0.00,,,0.00,,2013-01-24 12:12:00,
2013-01-24 07:22:00,15.0,9.0,30.50,NNW,332,1.0,4.0,77,0.00,,,0.00,,2013-01-24 12:22:00,
2013-01-24 07:33:00,15.0,9.0,30.51,North,9,0.0,3.0,77,0.00,,,0.00,,2013-01-24 12:33:00,
2013-01-24 07:42:00,15.0,9.0,30.51,North,9,0.0,3.0,77,0.00,,,0.00,,2013-01-24 12:42:00,
2013-01-24 07:53:00,14.0,8.0,30.52,North,351,0.0,2.0,78,0.00,,,0.00,,2013-01-24 12:53:00,
2013-01-24 08:02:00,14.0,8.0,30.52,North,351,0.0,2.0,78,0.00,,,0.00,,2013-01-24 13:02:00,
2013-01-24 08:12:00,14.0,8.0,30.52,North,351,0.0,2.0,78,0.00,,,0.00,,2013-01-24 13:12:00,
2013-01-24 08:23:00,14.0,9.0,30.53,North,351,0.0,1.0,79,0.00,,,0.00,,2013-01-24 13:23:00,
2013-01-24 08:33:00,14.0,9.0,30.53,North,351,0.0,3.0,80,0.00,,,0.00,,2013-01-24 13:33:00,
2013-01-24 08:42:00,14.0,9.0,30.53,North,351,0.0,3.0,80,0.00,,,0.00,,2013-01-24 13:42:00,
2013-01-24 08:53:00,14.0,9.0,30.52,NNW,347,0.0,3.0,80,0.00,,,0.00,,2013-01-24 13:53:00,
2013-01-24 09:02:00,14.0,9.0,30.53,NNW,347,0.0,3.0,80,0.00,,,0.00,,2013-01-24 14:02:00,
2013-01-24 09:12:00,14.0,9.0,30.53,NNW,347,0.0,3.0,80,0.00,,,0.00,,2013-01-24 14:12:00,
2013-01-24 09:23:00,15.0,10.0,30.55,NNW,348,0.0,4.0,79,0.00,,,0.00,,2013-01-24 14:23:00,
2013-01-24 09:33:00,15.0,10.0,30.55,NNW,348,0.0,3.0,79,0.00,,,0.00,,2013-01-24 14:33:00,
2013-01-24 09:43:00,15.0,10.0,30.55,NNW,348,0.0,3.0,79,0.00,,,0.00,,2013-01-24 14:43:00,
2013-01-24 09:54:00,16.0,11.0,30.56,NNE,15,0.0,2.0,79,0.00,,,0.00,,2013-01-24 14:54:00,
2013-01-24 10:03:00,17.0,11.0,30.57,NNE,26,0.0,2.0,78,0.00,,,0.00,,2013-01-24 15:03:00,
2013-01-24 10:12:00,17.0,11.0,30.57,NNE,26,0.0,2.0,78,0.00,,,0.00,,2013-01-24 15:12:00,
2013-01-24 10:23:00,17.0,11.0,30.58,NNE,30,0.0,2.0,77,0.00,,,0.00,,2013-01-24 15:23:00,
2013-01-24 10:33:00,17.0,11.0,30.58,NNE,30,0.0,2.0,77,0.00,,,0.00,,2013-01-24 15:33:00,
2013-01-24 10:43:00,18.0,11.0,30.59,NNE,30,0.0,2.0,75,0.00,,,0.00,,2013-01-24 15:43:00,
2013-01-24 10:53:00,19.0,12.0,30.60,NNW,336,0.0,3.0,75,0.00,,,0.00,,2013-01-24 15:53:00,
2013-01-24 11:03:00,20.0,12.0,30.60,NE,53,0.0,3.0,71,0.00,,,0.00,,2013-01-24 16:03:00,
2013-01-24 11:12:00,20.0,12.0,30.60,NE,53,0.0,3.0,71,0.00,,,0.00,,2013-01-24 16:12:00,
2013-01-24 11:23:00,20.0,9.0,30.60,North,11,1.0,4.0,63,0.00,,,0.00,,2013-01-24 16:23:00,
2013-01-24 11:33:00,20.0,10.0,30.61,SE,128,0.0,4.0,65,0.00,,,0.00,,2013-01-24 16:33:00,
2013-01-24 11:42:00,20.0,10.0,30.61,SE,128,0.0,4.0,65,0.00,,,0.00,,2013-01-24 16:42:00,
2013-01-24 12:02:00,22.0,10.0,30.61,ENE,57,1.0,5.0,58,0.00,,,0.00,,2013-01-24 17:02:00,
2013-01-24 12:12:00,22.0,10.0,30.61,ENE,57,1.0,5.0,58,0.00,,,0.00,,2013-01-24 17:12:00,
2013-01-24 12:22:00,22.0,9.0,30.60,ENE,61,2.0,10.0,56,0.00,,,0.00,,2013-01-24 17:22:00,
2013-01-24 12:32:00,23.0,10.0,30.59,ENE,62,1.0,8.0,58,0.00,,,0.00,,2013-01-24 17:32:00,
2013-01-24 12:42:00,23.0,10.0,30.59,ENE,62,1.0,8.0,58,0.00,,,0.00,,2013-01-24 17:42:00,
2013-01-24 12:52:00,23.0,9.0,30.59,East,86,4.0,11.0,55,0.00,,,0.00,,2013-01-24 17:52:00,
2013-01-24 13:02:00,23.0,9.0,30.58,WNW,287,1.0,7.0,54,0.00,,,0.00,,2013-01-24 18:02:00,
2013-01-24 13:12:00,24.0,9.0,30.58,NNE,20,0.0,5.0,53,0.00,,,0.00,,2013-01-24 18:12:00,
2013-01-24 13:22:00,24.0,9.0,30.58,NNE,20,0.0,5.0,53,0.00,,,0.00,,2013-01-24 18:22:00,
2013-01-24 13:32:00,24.0,8.0,30.57,ENE,74,3.0,17.0,50,0.00,,,0.00,,2013-01-24 18:32:00,
2013-01-24 13:42:00,24.0,8.0,30.57,ENE,74,3.0,17.0,50,0.00,,,0.00,,2013-01-24 18:42:00,
2013-01-24 13:53:00,24.0,8.0,30.57,NNE,31,0.0,4.0,49,0.00,,,0.00,,2013-01-24 18:53:00,
2013-01-24 14:02:00,25.0,9.0,30.56,West,279,0.0,5.0,50,0.00,,,0.00,,2013-01-24 19:02:00,
2013-01-24 14:12:00,25.0,9.0,30.55,ENE,63,3.0,9.0,49,0.00,,,0.00,,2013-01-24 19:12:00,
2013-01-24 14:22:00,25.0,9.0,30.55,ENE,63,3.0,9.0,49,0.00,,,0.00,,2013-01-24 19:22:00,
2013-01-24 14:32:00,25.0,7.0,30.54,East,83,4.0,10.0,46,0.00,,,0.00,,2013-01-24 19:32:00,
2013-01-24 14:42:00,25.0,7.0,30.54,East,86,4.0,11.0,46,0.00,,,0.00,,2013-01-24 19:42:00,
2013-01-24 14:52:00,25.0,7.0,30.54,East,86,4.0,11.0,46,0.00,,,0.00,,2013-01-24 19:52:00,
2013-01-24 15:02:00,25.0,7.0,30.53,NNW,344,1.0,8.0,45,0.00,,,0.00,,2013-01-24 20:02:00,
2013-01-24 15:11:00,25.0,5.0,30.54,ENE,74,1.0,10.0,42,0.00,,,0.00,,2013-01-24 20:11:00,
2013-01-24 15:22:00,25.0,5.0,30.54,ENE,74,1.0,10.0,42,0.00,,,0.00,,2013-01-24 20:22:00,
2013-01-24 15:32:00,25.0,5.0,30.54,NE,47,0.0,5.0,42,0.00,,,0.00,,2013-01-24 20:32:00,
2013-01-24 15:42:00,26.0,4.0,30.54,ENE,67,1.0,5.0,39,0.00,,,0.00,,2013-01-24 20:42:00,
2013-01-24 15:52:00,26.0,4.0,30.54,ENE,67,1.0,5.0,39,0.00,,,0.00,,2013-01-24 20:52:00,
2013-01-24 16:02:00,26.0,5.0,30.53,East,100,5.0,10.0,40,0.00,,,0.00,,2013-01-24 21:02:00,
2013-01-24 16:12:00,26.0,4.0,30.53,SE,125,4.0,10.0,39,0.00,,,0.00,,2013-01-24 21:12:00,
2013-01-24 16:22:00,26.0,4.0,30.53,SE,125,4.0,10.0,39,0.00,,,0.00,,2013-01-24 21:22:00,
2013-01-24 16:33:00,26.0,5.0,30.52,SE,138,3.0,8.0,40,0.00,,,0.00,,2013-01-24 21:33:00,
2013-01-24 16:42:00,26.0,5.0,30.52,SE,138,3.0,8.0,40,0.00,,,0.00,,2013-01-24 21:42:00,
2013-01-24 16:53:00,26.0,4.0,30.52,East,93,2.0,9.0,39,0.00,,,0.00,,2013-01-24 21:53:00,
2013-01-24 17:02:00,25.0,4.0,30.52,East,95,3.0,9.0,39,0.00,,,0.00,,2013-01-24 22:02:00,
2013-01-24 17:12:00,25.0,4.0,30.53,East,93,3.0,8.0,39,0.00,,,0.00,,2013-01-24 22:12:00,
2013-01-24 17:22:00,25.0,4.0,30.53,East,93,3.0,8.0,39,0.00,,,0.00,,2013-01-24 22:22:00,
2013-01-24 17:32:00,24.0,4.0,30.52,East,89,3.0,7.0,41,0.00,,,0.00,,2013-01-24 22:32:00,
2013-01-24 17:42:00,24.0,4.0,30.52,East,89,3.0,7.0,41,0.00,,,0.00,,2013-01-24 22:42:00,
2013-01-24 17:53:00,24.0,4.0,30.51,East,81,2.0,9.0,41,0.00,,,0.00,,2013-01-24 22:53:00,
2013-01-24 18:02:00,23.0,3.0,30.50,East,89,4.0,8.0,42,0.00,,,0.00,,2013-01-24 23:02:00,
2013-01-24 18:12:00,23.0,3.0,30.50,East,89,4.0,8.0,42,0.00,,,0.00,,2013-01-24 23:12:00,
2013-01-24 18:22:00,23.0,3.0,30.50,East,83,2.0,8.0,41,0.00,,,0.00,,2013-01-24 23:22:00,
2013-01-24 18:32:00,23.0,3.0,30.50,ENE,74,1.0,7.0,42,0.00,,,0.00,,2013-01-24 23:32:00,
2013-01-24 18:42:00,23.0,3.0,30.50,ENE,74,1.0,7.0,42,0.00,,,0.00,,2013-01-24 23:42:00,
2013-01-24 18:52:00,22.0,3.0,30.50,East,80,3.0,9.0,43,0.00,,,0.00,,2013-01-24 23:52:00,
2013-01-24 19:02:00,22.0,3.0,30.50,East,88,3.0,9.0,44,0.00,,,0.00,,2013-01-25 00:02:00,
2013-01-24 19:12:00,22.0,3.0,30.50,East,88,3.0,9.0,44,0.00,,,0.00,,2013-01-25 00:12:00,
2013-01-24 19:22:00,22.0,3.0,30.49,East,83,3.0,8.0,44,0.00,,,0.00,,2013-01-25 00:22:00,
2013-01-24 19:32:00,22.0,3.0,30.51,East,87,3.0,8.0,44,0.00,,,0.00,,2013-01-25 00:32:00,
2013-01-24 19:42:00,22.0,3.0,30.51,East,87,3.0,8.0,44,0.00,,,0.00,,2013-01-25 00:42:00,
2013-01-24 19:52:00,22.0,4.0,30.50,East,89,2.0,8.0,45,0.00,,,0.00,,2013-01-25 00:52:00,
2013-01-24 20:01:00,22.0,3.0,30.50,East,89,4.0,9.0,44,0.00,,,0.00,,2013-01-25 01:01:00,
2013-01-24 20:12:00,22.0,4.0,30.52,East,98,1.0,5.0,45,0.00,,,0.00,,2013-01-25 01:12:00,
2013-01-24 20:21:00,22.0,4.0,30.52,East,98,1.0,5.0,45,0.00,,,0.00,,2013-01-25 01:21:00,
2013-01-24 20:32:00,22.0,4.0,30.50,East,83,3.0,7.0,45,0.00,,,0.00,,2013-01-25 01:32:00,
2013-01-24 20:42:00,22.0,4.0,30.50,East,83,3.0,7.0,45,0.00,,,0.00,,2013-01-25 01:42:00,
2013-01-24 20:52:00,22.0,4.0,30.48,East,87,3.0,10.0,46,0.00,,,0.00,,2013-01-25 01:52:00,
2013-01-24 21:02:00,22.0,4.0,30.48,East,87,4.0,9.0,46,0.00,,,0.00,,2013-01-25 02:02:00,
2013-01-24 21:11:00,22.0,4.0,30.48,East,87,4.0,9.0,46,0.00,,,0.00,,2013-01-25 02:11:00,
2013-01-24 21:22:00,22.0,4.0,30.47,East,80,3.0,8.0,46,0.00,,,0.00,,2013-01-25 02:22:00,
2013-01-24 21:32:00,22.0,4.0,30.46,East,88,5.0,11.0,46,0.00,,,0.00,,2013-01-25 02:32:00,
2013-01-24 21:42:00,22.0,4.0,30.46,East,83,3.0,9.0,46,0.00,,,0.00,,2013-01-25 02:42:00,
2013-01-24 21:52:00,22.0,4.0,30.46,East,83,3.0,9.0,46,0.00,,,0.00,,2013-01-25 02:52:00,
2013-01-24 22:02:00,22.0,4.0,30.45,East,87,5.0,11.0,46,0.00,,,0.00,,2013-01-25 03:02:00,
2013-01-24 22:12:00,22.0,5.0,30.45,East,94,4.0,13.0,47,0.00,,,0.00,,2013-01-25 03:12:00,
2013-01-24 22:22:00,22.0,5.0,30.45,East,94,4.0,13.0,47,0.00,,,0.00,,2013-01-25 03:22:00,
2013-01-24 22:32:00,22.0,4.0,30.45,East,90,3.0,9.0,46,0.00,,,0.00,,2013-01-25 03:32:00,
2013-01-24 22:41:00,22.0,4.0,30.45,East,90,3.0,9.0,46,0.00,,,0.00,,2013-01-25 03:41:00,
2013-01-24 22:52:00,22.0,5.0,30.44,East,98,5.0,13.0,47,0.00,,,0.00,,2013-01-25 03:52:00,
2013-01-24 23:02:00,22.0,5.0,30.43,East,92,5.0,11.0,48,0.00,,,0.00,,2013-01-25 04:02:00,
2013-01-24 23:12:00,22.0,5.0,30.42,East,99,4.0,14.0,48,0.00,,,0.00,,2013-01-25 04:12:00,
2013-01-24 23:22:00,22.0,5.0,30.42,East,99,4.0,14.0,48,0.00,,,0.00,,2013-01-25 04:22:00,
2013-01-24 23:32:00,22.0,5.0,30.43,East,97,4.0,14.0,48,0.00,,,0.00,,2013-01-25 04:32:00,
2013-01-24 23:41:00,22.0,5.0,30.43,East,97,4.0,14.0,48,0.00,,,0.00,,2013-01-25 04:41:00,
2013-01-24 23:52:00,22.0,5.0,30.42,East,95,4.0,12.0,48,0.00,,,0.00,,2013-01-25 04:52:00,